sensor_id;sensor_type;location;lat;lon;timestamp;pressure;altitude;pressure_sealevel;temperature;humidity
75157;BME280;63736;50.076;8.198;2023-07-31T00:00:05;99350.91;;;17.71;94.85
75157;BME280;63736;50.076;8.198;2023-07-31T00:02:30;99357.34;;;17.70;95.03
75157;BME280;63736;50.076;8.198;2023-07-31T00:04:55;99349.41;;;17.68;96.77
75157;BME280;63736;50.076;8.198;2023-07-31T00:07:21;99348.94;;;17.64;97.94
75157;BME280;63736;50.076;8.198;2023-07-31T00:09:46;99350.81;;;17.64;98.36
75157;BME280;63736;50.076;8.198;2023-07-31T00:12:11;99344.72;;;17.62;100.00
75157;BME280;63736;50.076;8.198;2023-07-31T00:14:36;99339.88;;;17.57;100.00
75157;BME280;63736;50.076;8.198;2023-07-31T00:17:02;99338.19;;;17.56;100.00
75157;BME280;63736;50.076;8.198;2023-07-31T00:19:27;99334.16;;;17.52;100.00
75157;BME280;63736;50.076;8.198;2023-07-31T00:21:52;99333.88;;;17.47;100.00
75157;BME280;63736;50.076;8.198;2023-07-31T00:24:18;99337.28;;;17.41;100.00
75157;BME280;63736;50.076;8.198;2023-07-31T00:26:43;99339.47;;;17.37;100.00
75157;BME280;63736;50.076;8.198;2023-07-31T00:29:08;99334.63;;;17.32;100.00
75157;BME280;63736;50.076;8.198;2023-07-31T00:31:33;99328.72;;;17.29;100.00
75157;BME280;63736;50.076;8.198;2023-07-31T00:33:59;99326.56;;;17.24;100.00
75157;BME280;63736;50.076;8.198;2023-07-31T00:36:24;99321.53;;;17.21;100.00
75157;BME280;63736;50.076;8.198;2023-07-31T00:38:49;99332.69;;;17.18;100.00
75157;BME280;63736;50.076;8.198;2023-07-31T00:41:15;99326.13;;;17.12;100.00
75157;BME280;63736;50.076;8.198;2023-07-31T00:43:40;99321.91;;;17.10;100.00
75157;BME280;63736;50.076;8.198;2023-07-31T00:46:06;99331.38;;;17.06;100.00
75157;BME280;63736;50.076;8.198;2023-07-31T00:48:31;99327.00;;;17.05;100.00
75157;BME280;63736;50.076;8.198;2023-07-31T00:50:57;99334.25;;;17.04;100.00
75157;BME280;63736;50.076;8.198;2023-07-31T00:53:24;99324.97;;;17.07;100.00
75157;BME280;63736;50.076;8.198;2023-07-31T00:55:50;99326.66;;;17.08;100.00
75157;BME280;63736;50.076;8.198;2023-07-31T00:58:15;99320.59;;;17.06;100.00
75157;BME280;63736;50.076;8.198;2023-07-31T01:00:40;99310.16;;;17.03;100.00
75157;BME280;63736;50.076;8.198;2023-07-31T01:03:06;99306.59;;;17.02;100.00
75157;BME280;63736;50.076;8.198;2023-07-31T01:06:05;99308.47;;;17.01;100.00
75157;BME280;63736;50.076;8.198;2023-07-31T01:08:54;99308.47;;;17.01;100.00
75157;BME280;63736;50.076;8.198;2023-07-31T01:11:27;99312.34;;;16.99;100.00
75157;BME280;63736;50.076;8.198;2023-07-31T01:13:55;99308.66;;;17.00;100.00
75157;BME280;63736;50.076;8.198;2023-07-31T01:16:20;99318.44;;;17.01;100.00
75157;BME280;63736;50.076;8.198;2023-07-31T01:18:45;99302.25;;;17.01;100.00
75157;BME280;63736;50.076;8.198;2023-07-31T01:27:15;99305.22;;;17.06;100.00
75157;BME280;63736;50.076;8.198;2023-07-31T01:32:28;99292.22;;;17.10;100.00
75157;BME280;63736;50.076;8.198;2023-07-31T01:34:54;99288.50;;;17.11;100.00
75157;BME280;63736;50.076;8.198;2023-07-31T01:37:20;99272.31;;;17.11;100.00
75157;BME280;63736;50.076;8.198;2023-07-31T01:39:45;99269.44;;;17.12;100.00
75157;BME280;63736;50.076;8.198;2023-07-31T01:42:10;99273.81;;;17.13;100.00
75157;BME280;63736;50.076;8.198;2023-07-31T01:44:35;99267.59;;;17.13;100.00
75157;BME280;63736;50.076;8.198;2023-07-31T01:47:01;99268.06;;;17.16;100.00
75157;BME280;63736;50.076;8.198;2023-07-31T01:49:26;99273.13;;;17.20;100.00
75157;BME280;63736;50.076;8.198;2023-07-31T01:51:52;99262.13;;;17.21;100.00
75157;BME280;63736;50.076;8.198;2023-07-31T01:54:17;99271.75;;;17.24;100.00
75157;BME280;63736;50.076;8.198;2023-07-31T01:56:42;99269.72;;;17.26;100.00
75157;BME280;63736;50.076;8.198;2023-07-31T01:59:08;99274.06;;;17.27;100.00
75157;BME280;63736;50.076;8.198;2023-07-31T02:01:33;99268.53;;;17.28;100.00
75157;BME280;63736;50.076;8.198;2023-07-31T02:03:58;99255.84;;;17.29;100.00
75157;BME280;63736;50.076;8.198;2023-07-31T02:06:24;99258.56;;;17.29;100.00
75157;BME280;63736;50.076;8.198;2023-07-31T02:08:49;99260.22;;;17.30;100.00
75157;BME280;63736;50.076;8.198;2023-07-31T02:11:14;99263.13;;;17.28;100.00
75157;BME280;63736;50.076;8.198;2023-07-31T02:13:39;99256.84;;;17.28;100.00
75157;BME280;63736;50.076;8.198;2023-07-31T02:16:05;99268.34;;;17.30;100.00
75157;BME280;63736;50.076;8.198;2023-07-31T02:18:30;99264.78;;;17.29;100.00
75157;BME280;63736;50.076;8.198;2023-07-31T02:20:55;99268.66;;;17.27;100.00
75157;BME280;63736;50.076;8.198;2023-07-31T02:23:21;99275.38;;;17.31;100.00
75157;BME280;63736;50.076;8.198;2023-07-31T02:25:46;99268.78;;;17.33;100.00
75157;BME280;63736;50.076;8.198;2023-07-31T02:28:12;99266.09;;;17.33;100.00
75157;BME280;63736;50.076;8.198;2023-07-31T02:30:38;99254.09;;;17.36;100.00
75157;BME280;63736;50.076;8.198;2023-07-31T02:33:04;99252.06;;;17.38;100.00
75157;BME280;63736;50.076;8.198;2023-07-31T02:35:29;99263.53;;;17.40;100.00
75157;BME280;63736;50.076;8.198;2023-07-31T02:37:54;99263.53;;;17.40;100.00
75157;BME280;63736;50.076;8.198;2023-07-31T02:40:20;99258.78;;;17.42;100.00
75157;BME280;63736;50.076;8.198;2023-07-31T02:42:45;99265.88;;;17.43;100.00
75157;BME280;63736;50.076;8.198;2023-07-31T02:45:10;99268.19;;;17.46;100.00
75157;BME280;63736;50.076;8.198;2023-07-31T02:47:36;99271.75;;;17.47;100.00
75157;BME280;63736;50.076;8.198;2023-07-31T02:50:02;99269.69;;;17.49;100.00
75157;BME280;63736;50.076;8.198;2023-07-31T02:52:28;99268.19;;;17.46;100.00
75157;BME280;63736;50.076;8.198;2023-07-31T02:54:53;99269.41;;;17.44;100.00
75157;BME280;63736;50.076;8.198;2023-07-31T02:57:18;99261.66;;;17.41;100.00
75157;BME280;63736;50.076;8.198;2023-07-31T02:59:44;99262.69;;;17.40;100.00
75157;BME280;63736;50.076;8.198;2023-07-31T03:02:09;99261.66;;;17.41;100.00
75157;BME280;63736;50.076;8.198;2023-07-31T03:04:34;99261.84;;;17.39;100.00
75157;BME280;63736;50.076;8.198;2023-07-31T03:07:00;99259.34;;;17.38;100.00
75157;BME280;63736;50.076;8.198;2023-07-31T03:09:25;99253.09;;;17.37;100.00
75157;BME280;63736;50.076;8.198;2023-07-31T03:11:50;99257.16;;;17.33;100.00
75157;BME280;63736;50.076;8.198;2023-07-31T03:14:16;99246.75;;;17.30;100.00
75157;BME280;63736;50.076;8.198;2023-07-31T03:16:41;99247.94;;;17.27;100.00
75157;BME280;63736;50.076;8.198;2023-07-31T03:19:06;99253.66;;;17.24;100.00
75157;BME280;63736;50.076;8.198;2023-07-31T03:21:31;99256.38;;;17.24;100.00
75157;BME280;63736;50.076;8.198;2023-07-31T03:23:57;99255.53;;;17.24;100.00
75157;BME280;63736;50.076;8.198;2023-07-31T03:26:22;99253.66;;;17.24;100.00
75157;BME280;63736;50.076;8.198;2023-07-31T03:28:47;99256.56;;;17.23;100.00
75157;BME280;63736;50.076;8.198;2023-07-31T03:31:14;99263.81;;;17.22;100.00
75157;BME280;63736;50.076;8.198;2023-07-31T03:33:39;99262.97;;;17.22;100.00
75157;BME280;63736;50.076;8.198;2023-07-31T03:36:05;99266.53;;;17.22;100.00
75157;BME280;63736;50.076;8.198;2023-07-31T03:38:31;99266.34;;;17.24;100.00
75157;BME280;63736;50.076;8.198;2023-07-31T03:40:56;99268.84;;;17.25;100.00
75157;BME280;63736;50.076;8.198;2023-07-31T03:43:23;99276.78;;;17.27;100.00
75157;BME280;63736;50.076;8.198;2023-07-31T03:45:50;99274.75;;;17.29;100.00
75157;BME280;63736;50.076;8.198;2023-07-31T03:48:15;99270.00;;;17.31;100.00
75157;BME280;63736;50.076;8.198;2023-07-31T03:50:41;99263.56;;;17.32;100.00
75157;BME280;63736;50.076;8.198;2023-07-31T03:53:06;99258.84;;;17.34;100.00
75157;BME280;63736;50.076;8.198;2023-07-31T03:55:31;99257.16;;;17.33;100.00
75157;BME280;63736;50.076;8.198;2023-07-31T03:57:57;99254.09;;;17.36;100.00
75157;BME280;63736;50.076;8.198;2023-07-31T04:00:22;99246.84;;;17.37;100.00
75157;BME280;63736;50.076;8.198;2023-07-31T04:02:48;99254.09;;;17.36;100.00
75157;BME280;63736;50.076;8.198;2023-07-31T04:05:13;99254.09;;;17.36;100.00
75157;BME280;63736;50.076;8.198;2023-07-31T04:07:38;99250.38;;;17.37;100.00
75157;BME280;63736;50.076;8.198;2023-07-31T04:10:04;99239.59;;;17.37;100.00
75157;BME280;63736;50.076;8.198;2023-07-31T04:12:29;99239.25;;;17.40;100.00
75157;BME280;63736;50.076;8.198;2023-07-31T04:14:54;99229.44;;;17.39;100.00
75157;BME280;63736;50.076;8.198;2023-07-31T04:17:20;99236.34;;;17.42;100.00
75157;BME280;63736;50.076;8.198;2023-07-31T04:19:45;99233.28;;;17.45;100.00
75157;BME280;63736;50.076;8.198;2023-07-31T04:22:10;99224.16;;;17.46;100.00
75157;BME280;63736;50.076;8.198;2023-07-31T04:24:36;99231.25;;;17.47;100.00
75157;BME280;63736;50.076;8.198;2023-07-31T04:27:01;99213.84;;;17.49;100.00
75157;BME280;63736;50.076;8.198;2023-07-31T04:29:26;99218.25;;;17.50;100.00
75157;BME280;63736;50.076;8.198;2023-07-31T04:31:52;99223.44;;;17.52;100.00
75157;BME280;63736;50.076;8.198;2023-07-31T04:34:17;99221.56;;;17.53;100.00
75157;BME280;63736;50.076;8.198;2023-07-31T04:36:42;99220.56;;;17.54;100.00
75157;BME280;63736;50.076;8.198;2023-07-31T04:39:07;99222.25;;;17.55;100.00
75157;BME280;63736;50.076;8.198;2023-07-31T04:41:33;99224.75;;;17.56;100.00
75157;BME280;63736;50.076;8.198;2023-07-31T04:43:58;99229.97;;;17.58;100.00
75157;BME280;63736;50.076;8.198;2023-07-31T04:46:23;99230.66;;;17.60;100.00
75157;BME280;63736;50.076;8.198;2023-07-31T04:48:49;99234.84;;;17.62;100.00
75157;BME280;63736;50.076;8.198;2023-07-31T04:51:14;99226.56;;;17.64;100.00
75157;BME280;63736;50.076;8.198;2023-07-31T04:53:39;99236.97;;;17.67;100.00
75157;BME280;63736;50.076;8.198;2023-07-31T04:56:05;99228.69;;;17.68;100.00
75157;BME280;63736;50.076;8.198;2023-07-31T04:58:30;99237.47;;;17.71;100.00
75157;BME280;63736;50.076;8.198;2023-07-31T05:00:55;99221.06;;;17.72;100.00
75157;BME280;63736;50.076;8.198;2023-07-31T05:03:21;99233.38;;;17.75;100.00
75157;BME280;63736;50.076;8.198;2023-07-31T05:05:47;99229.66;;;17.76;100.00
75157;BME280;63736;50.076;8.198;2023-07-31T05:08:12;99228.44;;;17.78;100.00
75157;BME280;63736;50.076;8.198;2023-07-31T05:10:37;99228.94;;;17.82;100.00
75157;BME280;63736;50.076;8.198;2023-07-31T05:13:03;99221.47;;;17.84;100.00
75157;BME280;63736;50.076;8.198;2023-07-31T05:15:29;99222.97;;;17.87;100.00
75157;BME280;63736;50.076;8.198;2023-07-31T05:17:54;99218.22;;;17.89;100.00
75157;BME280;63736;50.076;8.198;2023-07-31T05:20:20;99212.28;;;17.93;100.00
75157;BME280;63736;50.076;8.198;2023-07-31T05:22:45;99219.19;;;17.96;100.00
75157;BME280;63736;50.076;8.198;2023-07-31T05:25:11;99222.53;;;17.98;100.00
75157;BME280;63736;50.076;8.198;2023-07-31T05:27:36;99228.63;;;18.00;100.00
75157;BME280;63736;50.076;8.198;2023-07-31T05:30:01;99222.00;;;18.03;100.00
75157;BME280;63736;50.076;8.198;2023-07-31T05:32:27;99221.44;;;18.07;100.00
75157;BME280;63736;50.076;8.198;2023-07-31T05:34:52;99227.50;;;18.09;100.00
75157;BME280;63736;50.076;8.198;2023-07-31T05:37:18;99223.03;;;18.16;100.00
75157;BME280;63736;50.076;8.198;2023-07-31T05:39:44;99230.59;;;18.21;100.00
75157;BME280;63736;50.076;8.198;2023-07-31T05:42:09;99232.72;;;18.26;100.00
75157;BME280;63736;50.076;8.198;2023-07-31T05:44:34;99227.97;;;18.28;100.00
75157;BME280;63736;50.076;8.198;2023-07-31T05:46:59;99226.38;;;18.33;100.00
75157;BME280;63736;50.076;8.198;2023-07-31T05:49:25;99209.41;;;18.40;100.00
75157;BME280;63736;50.076;8.198;2023-07-31T05:51:50;99198.94;;;18.52;100.00
75157;BME280;63736;50.076;8.198;2023-07-31T05:54:15;99194.63;;;18.72;100.00
75157;BME280;63736;50.076;8.198;2023-07-31T05:56:41;99194.91;;;18.92;98.06
75157;BME280;63736;50.076;8.198;2023-07-31T05:59:06;99186.78;;;19.14;96.75
75157;BME280;63736;50.076;8.198;2023-07-31T06:01:31;99189.25;;;19.30;94.91
75157;BME280;63736;50.076;8.198;2023-07-31T06:03:57;99200.84;;;19.46;93.83
75157;BME280;63736;50.076;8.198;2023-07-31T06:06:22;99207.22;;;19.60;92.46
75157;BME280;63736;50.076;8.198;2023-07-31T06:08:47;99207.91;;;19.69;91.25
75157;BME280;63736;50.076;8.198;2023-07-31T06:11:12;99201.66;;;19.90;90.21
75157;BME280;63736;50.076;8.198;2023-07-31T06:13:38;99198.59;;;20.06;88.43
75157;BME280;63736;50.076;8.198;2023-07-31T06:16:03;99194.34;;;20.25;87.01
75157;BME280;63736;50.076;8.198;2023-07-31T06:18:32;99204.06;;;20.48;85.13
75157;BME280;63736;50.076;8.198;2023-07-31T06:20:58;99190.34;;;20.63;83.76
75157;BME280;63736;50.076;8.198;2023-07-31T06:23:23;99187.00;;;20.68;83.26
75157;BME280;63736;50.076;8.198;2023-07-31T06:25:48;99195.16;;;20.68;81.78
75157;BME280;63736;50.076;8.198;2023-07-31T06:28:14;99200.34;;;20.62;81.36
75157;BME280;63736;50.076;8.198;2023-07-31T06:30:39;99190.13;;;20.58;81.18
75157;BME280;63736;50.076;8.198;2023-07-31T06:33:04;99192.63;;;20.59;80.13
75157;BME280;63736;50.076;8.198;2023-07-31T06:35:29;99189.91;;;20.59;78.76
75157;BME280;63736;50.076;8.198;2023-07-31T06:37:55;99187.75;;;20.90;77.30
75157;BME280;63736;50.076;8.198;2023-07-31T06:40:20;99188.47;;;21.39;73.83
75157;BME280;63736;50.076;8.198;2023-07-31T06:42:46;99192.25;;;22.70;68.58
75157;BME280;63736;50.076;8.198;2023-07-31T06:45:12;99196.00;;;23.72;63.36
75157;BME280;63736;50.076;8.198;2023-07-31T06:47:37;99189.81;;;24.08;59.78
75157;BME280;63736;50.076;8.198;2023-07-31T06:50:03;99191.22;;;24.18;58.84
75157;BME280;63736;50.076;8.198;2023-07-31T06:52:28;99185.38;;;23.96;57.98
75157;BME280;63736;50.076;8.198;2023-07-31T06:55:04;99183.84;;;24.18;57.02
75157;BME280;63736;50.076;8.198;2023-07-31T06:57:40;99182.19;;;24.36;56.20
75157;BME280;63736;50.076;8.198;2023-07-31T07:00:06;99186.34;;;24.57;55.27
75157;BME280;63736;50.076;8.198;2023-07-31T07:02:32;99184.00;;;25.10;52.81
75157;BME280;63736;50.076;8.198;2023-07-31T07:04:57;99178.19;;;25.72;50.82
75157;BME280;63736;50.076;8.198;2023-07-31T07:07:22;99179.00;;;26.44;48.60
75157;BME280;63736;50.076;8.198;2023-07-31T07:09:47;99166.94;;;27.43;45.20
75157;BME280;63736;50.076;8.198;2023-07-31T07:12:13;99172.22;;;28.01;44.39
75157;BME280;63736;50.076;8.198;2023-07-31T07:14:38;99177.38;;;28.76;42.72
75157;BME280;63736;50.076;8.198;2023-07-31T07:17:04;99167.13;;;29.26;40.84
75157;BME280;63736;50.076;8.198;2023-07-31T07:19:29;99158.84;;;29.21;40.91
75157;BME280;63736;50.076;8.198;2023-07-31T07:21:54;99155.44;;;28.81;40.15
75157;BME280;63736;50.076;8.198;2023-07-31T07:24:20;99149.78;;;27.87;41.05
75157;BME280;63736;50.076;8.198;2023-07-31T07:26:45;99149.66;;;26.97;42.87
75157;BME280;63736;50.076;8.198;2023-07-31T07:29:10;99147.97;;;26.26;44.84
75157;BME280;63736;50.076;8.198;2023-07-31T07:31:36;99165.00;;;25.69;46.62
75157;BME280;63736;50.076;8.198;2023-07-31T07:34:01;99151.19;;;25.87;47.17
75157;BME280;63736;50.076;8.198;2023-07-31T07:36:27;99147.91;;;26.09;46.62
75157;BME280;63736;50.076;8.198;2023-07-31T07:38:53;99141.56;;;25.85;46.97
75157;BME280;63736;50.076;8.198;2023-07-31T07:41:18;99140.50;;;25.50;47.70
75157;BME280;63736;50.076;8.198;2023-07-31T07:43:43;99139.81;;;25.13;48.76
75157;BME280;63736;50.076;8.198;2023-07-31T07:46:09;99145.38;;;24.76;49.66
75157;BME280;63736;50.076;8.198;2023-07-31T07:48:34;99144.81;;;24.36;51.08
75157;BME280;63736;50.076;8.198;2023-07-31T07:50:59;99143.59;;;23.95;52.75
75157;BME280;63736;50.076;8.198;2023-07-31T07:53:24;99148.44;;;23.68;54.10
75157;BME280;63736;50.076;8.198;2023-07-31T07:55:50;99148.25;;;23.44;55.52
75157;BME280;63736;50.076;8.198;2023-07-31T07:58:15;99140.25;;;23.17;56.29
75157;BME280;63736;50.076;8.198;2023-07-31T08:00:40;99140.44;;;22.90;58.00
75157;BME280;63736;50.076;8.198;2023-07-31T08:03:05;99137.41;;;22.67;59.53
75157;BME280;63736;50.076;8.198;2023-07-31T08:05:31;99134.97;;;22.52;60.74
75157;BME280;63736;50.076;8.198;2023-07-31T08:07:59;99141.59;;;22.63;61.12
75157;BME280;63736;50.076;8.198;2023-07-31T08:10:24;99133.94;;;22.85;60.38
75157;BME280;63736;50.076;8.198;2023-07-31T08:12:49;99127.44;;;22.86;60.08
75157;BME280;63736;50.076;8.198;2023-07-31T08:15:15;99136.13;;;22.69;60.89
75157;BME280;63736;50.076;8.198;2023-07-31T08:17:40;99128.22;;;22.61;61.59
75157;BME280;63736;50.076;8.198;2023-07-31T08:20:06;99125.75;;;22.53;62.35
75157;BME280;63736;50.076;8.198;2023-07-31T08:22:31;99123.47;;;22.50;62.84
75157;BME280;63736;50.076;8.198;2023-07-31T08:24:57;99121.81;;;22.49;62.46
75157;BME280;63736;50.076;8.198;2023-07-31T08:27:22;99110.50;;;22.45;62.63
75157;BME280;63736;50.076;8.198;2023-07-31T08:29:47;99113.22;;;22.45;62.98
75157;BME280;63736;50.076;8.198;2023-07-31T08:32:12;99104.78;;;22.60;62.54
75157;BME280;63736;50.076;8.198;2023-07-31T08:34:38;99113.69;;;22.74;61.83
75157;BME280;63736;50.076;8.198;2023-07-31T08:37:03;99119.34;;;22.79;61.35
75157;BME280;63736;50.076;8.198;2023-07-31T08:39:28;99118.28;;;22.80;61.28
75157;BME280;63736;50.076;8.198;2023-07-31T08:41:58;99116.84;;;22.77;61.56
75157;BME280;63736;50.076;8.198;2023-07-31T08:44:24;99117.66;;;22.78;62.24
75157;BME280;63736;50.076;8.198;2023-07-31T08:46:50;99112.66;;;22.75;62.55
75157;BME280;63736;50.076;8.198;2023-07-31T08:49:16;99111.63;;;22.76;62.74
75157;BME280;63736;50.076;8.198;2023-07-31T08:51:43;99116.88;;;22.71;62.90
75157;BME280;63736;50.076;8.198;2023-07-31T08:54:08;99107.28;;;22.61;63.23
75157;BME280;63736;50.076;8.198;2023-07-31T08:56:34;99101.63;;;22.63;62.85
75157;BME280;63736;50.076;8.198;2023-07-31T08:59:02;99100.97;;;22.68;63.23
75157;BME280;63736;50.076;8.198;2023-07-31T09:01:30;99101.94;;;22.80;63.24
75157;BME280;63736;50.076;8.198;2023-07-31T09:03:59;99108.41;;;23.18;62.40
75157;BME280;63736;50.076;8.198;2023-07-31T09:06:28;99103.56;;;23.45;61.86
75157;BME280;63736;50.076;8.198;2023-07-31T09:08:54;99098.81;;;23.59;61.52
75157;BME280;63736;50.076;8.198;2023-07-31T09:11:21;99104.59;;;23.69;61.04
75157;BME280;63736;50.076;8.198;2023-07-31T09:13:48;99087.09;;;23.77;59.68
75157;BME280;63736;50.076;8.198;2023-07-31T09:16:13;99090.28;;;23.74;59.51
75157;BME280;63736;50.076;8.198;2023-07-31T09:18:53;99093.69;;;23.69;59.04
75157;BME280;63736;50.076;8.198;2023-07-31T09:21:19;99091.47;;;23.59;59.76
75157;BME280;63736;50.076;8.198;2023-07-31T09:23:46;99091.75;;;23.51;60.04
75157;BME280;63736;50.076;8.198;2023-07-31T09:26:29;99100.69;;;23.40;60.25
75157;BME280;63736;50.076;8.198;2023-07-31T09:28:55;99095.94;;;23.29;60.35
75157;BME280;63736;50.076;8.198;2023-07-31T09:31:38;99098.50;;;23.23;61.04
75157;BME280;63736;50.076;8.198;2023-07-31T09:34:04;99088.50;;;23.17;61.17
75157;BME280;63736;50.076;8.198;2023-07-31T09:36:29;99079.66;;;23.22;61.85
75157;BME280;63736;50.076;8.198;2023-07-31T09:39:01;99072.41;;;23.34;61.21
75157;BME280;63736;50.076;8.198;2023-07-31T09:41:27;99070.88;;;23.64;60.35
75157;BME280;63736;50.076;8.198;2023-07-31T09:43:55;99062.47;;;23.84;58.81
75157;BME280;63736;50.076;8.198;2023-07-31T09:46:21;99054.84;;;23.92;57.01
75157;BME280;63736;50.076;8.198;2023-07-31T09:48:47;99053.13;;;23.98;55.77
75157;BME280;63736;50.076;8.198;2023-07-31T09:51:12;99055.91;;;24.10;55.41
75157;BME280;63736;50.076;8.198;2023-07-31T09:53:38;99051.56;;;24.21;54.85
75157;BME280;63736;50.076;8.198;2023-07-31T09:56:03;99057.00;;;24.39;54.74
75157;BME280;63736;50.076;8.198;2023-07-31T09:58:29;99055.00;;;24.47;53.69
75157;BME280;63736;50.076;8.198;2023-07-31T10:00:55;99049.56;;;24.47;52.82
75157;BME280;63736;50.076;8.198;2023-07-31T10:03:22;99044.72;;;24.30;52.40
75157;BME280;63736;50.076;8.198;2023-07-31T10:05:50;99037.66;;;24.11;52.52
75157;BME280;63736;50.076;8.198;2023-07-31T10:08:18;99036.63;;;23.93;53.25
75157;BME280;63736;50.076;8.198;2023-07-31T10:10:45;99031.16;;;23.93;53.89
75157;BME280;63736;50.076;8.198;2023-07-31T10:13:12;99026.13;;;23.90;53.95
75157;BME280;63736;50.076;8.198;2023-07-31T10:15:38;99036.88;;;24.22;53.21
75157;BME280;63736;50.076;8.198;2023-07-31T10:18:05;99034.00;;;24.78;50.92
75157;BME280;63736;50.076;8.198;2023-07-31T10:20:31;99023.00;;;25.08;49.41
75157;BME280;63736;50.076;8.198;2023-07-31T10:22:57;99014.38;;;25.35;47.85
75157;BME280;63736;50.076;8.198;2023-07-31T10:25:23;99016.72;;;25.31;47.72
75157;BME280;63736;50.076;8.198;2023-07-31T10:27:49;99020.50;;;25.18;48.17
75157;BME280;63736;50.076;8.198;2023-07-31T10:30:17;99011.69;;;25.28;47.95
75157;BME280;63736;50.076;8.198;2023-07-31T10:32:43;99006.50;;;25.38;46.79
75157;BME280;63736;50.076;8.198;2023-07-31T10:35:11;98998.69;;;25.83;46.22
75157;BME280;63736;50.076;8.198;2023-07-31T10:37:38;99007.56;;;26.02;44.89
75157;BME280;63736;50.076;8.198;2023-07-31T10:45:01;99012.53;;;26.46;43.25
75157;BME280;63736;50.076;8.198;2023-07-31T10:47:27;99015.31;;;26.63;43.16
75157;BME280;63736;50.076;8.198;2023-07-31T10:49:52;99020.50;;;26.76;43.07
75157;BME280;63736;50.076;8.198;2023-07-31T10:52:21;99013.22;;;26.70;42.77
75157;BME280;63736;50.076;8.198;2023-07-31T10:54:49;99005.81;;;26.82;42.85
75157;BME280;63736;50.076;8.198;2023-07-31T10:57:21;99015.00;;;27.10;42.89
75157;BME280;63736;50.076;8.198;2023-07-31T10:59:48;98997.81;;;27.15;42.23
75157;BME280;63736;50.076;8.198;2023-07-31T11:02:26;98996.16;;;27.14;42.22
75157;BME280;63736;50.076;8.198;2023-07-31T11:05:10;98993.19;;;26.98;42.10
75157;BME280;63736;50.076;8.198;2023-07-31T11:07:50;98981.66;;;26.96;42.05
75157;BME280;63736;50.076;8.198;2023-07-31T11:10:17;98978.06;;;26.96;41.95
75157;BME280;63736;50.076;8.198;2023-07-31T11:12:45;98983.47;;;26.74;42.30
75157;BME280;63736;50.076;8.198;2023-07-31T11:15:10;98985.44;;;26.61;42.68
75157;BME280;63736;50.076;8.198;2023-07-31T11:17:39;98982.66;;;26.44;42.91
75157;BME280;63736;50.076;8.198;2023-07-31T11:20:06;98980.75;;;26.45;43.38
75157;BME280;63736;50.076;8.198;2023-07-31T11:22:32;98985.00;;;26.52;43.56
75157;BME280;63736;50.076;8.198;2023-07-31T11:24:59;98986.16;;;26.57;42.94
75157;BME280;63736;50.076;8.198;2023-07-31T11:27:27;98971.06;;;26.71;42.76
75157;BME280;63736;50.076;8.198;2023-07-31T11:30:00;98976.19;;;26.79;42.13
75157;BME280;63736;50.076;8.198;2023-07-31T11:32:25;98977.16;;;26.90;41.90
75157;BME280;63736;50.076;8.198;2023-07-31T11:34:52;98967.00;;;27.08;41.74
75157;BME280;63736;50.076;8.198;2023-07-31T11:37:18;98963.25;;;27.14;41.68
75157;BME280;63736;50.076;8.198;2023-07-31T11:39:43;98958.91;;;27.18;41.40
75157;BME280;63736;50.076;8.198;2023-07-31T11:42:08;98959.06;;;27.28;41.19
75157;BME280;63736;50.076;8.198;2023-07-31T11:44:39;98966.00;;;27.53;40.81
75157;BME280;63736;50.076;8.198;2023-07-31T11:47:06;98965.41;;;27.68;40.15
75157;BME280;63736;50.076;8.198;2023-07-31T11:49:31;98968.41;;;27.89;39.70
75157;BME280;63736;50.076;8.198;2023-07-31T11:51:57;98966.19;;;27.91;39.80
75157;BME280;63736;50.076;8.198;2023-07-31T11:54:22;98963.19;;;27.92;39.76
75157;BME280;63736;50.076;8.198;2023-07-31T11:56:48;98970.75;;;28.02;39.66
75157;BME280;63736;50.076;8.198;2023-07-31T11:59:14;98972.28;;;27.93;39.56
75157;BME280;63736;50.076;8.198;2023-07-31T12:01:40;98974.56;;;28.01;39.84
75157;BME280;63736;50.076;8.198;2023-07-31T12:04:05;98970.56;;;27.86;40.03
75157;BME280;63736;50.076;8.198;2023-07-31T12:06:35;98966.66;;;27.60;40.50
75157;BME280;63736;50.076;8.198;2023-07-31T12:09:04;98952.69;;;27.40;41.15
75157;BME280;63736;50.076;8.198;2023-07-31T12:11:30;98942.13;;;27.31;41.30
75157;BME280;63736;50.076;8.198;2023-07-31T12:13:55;98951.94;;;27.27;41.40
75157;BME280;63736;50.076;8.198;2023-07-31T12:16:20;98947.88;;;27.13;41.60
75157;BME280;63736;50.076;8.198;2023-07-31T12:18:51;98941.97;;;26.82;42.28
75157;BME280;63736;50.076;8.198;2023-07-31T12:21:16;98938.28;;;26.59;42.14
75157;BME280;63736;50.076;8.198;2023-07-31T12:23:43;98944.41;;;26.49;42.79
75157;BME280;63736;50.076;8.198;2023-07-31T12:26:14;98938.00;;;26.44;42.92
75157;BME280;63736;50.076;8.198;2023-07-31T12:28:47;98930.91;;;26.60;42.59
75157;BME280;63736;50.076;8.198;2023-07-31T12:31:22;98927.41;;;26.98;41.93
75157;BME280;63736;50.076;8.198;2023-07-31T12:33:50;98912.47;;;27.28;41.14
75157;BME280;63736;50.076;8.198;2023-07-31T12:36:17;98922.44;;;27.57;40.79
75157;BME280;63736;50.076;8.198;2023-07-31T12:38:43;98917.03;;;27.62;40.53
75157;BME280;63736;50.076;8.198;2023-07-31T12:41:09;98914.47;;;27.55;40.71
75157;BME280;63736;50.076;8.198;2023-07-31T12:43:37;98900.38;;;27.46;40.90
75157;BME280;63736;50.076;8.198;2023-07-31T12:46:03;98902.50;;;27.39;41.08
75157;BME280;63736;50.076;8.198;2023-07-31T12:48:29;98904.97;;;27.41;41.50
75157;BME280;63736;50.076;8.198;2023-07-31T12:50:54;98905.81;;;27.41;41.38
75157;BME280;63736;50.076;8.198;2023-07-31T12:53:20;98904.16;;;27.23;41.24
75157;BME280;63736;50.076;8.198;2023-07-31T12:55:45;98903.19;;;27.12;41.60
75157;BME280;63736;50.076;8.198;2023-07-31T12:58:10;98896.38;;;27.15;41.38
75157;BME280;63736;50.076;8.198;2023-07-31T13:00:36;98901.75;;;27.27;41.35
75157;BME280;63736;50.076;8.198;2023-07-31T13:03:02;98900.22;;;27.36;41.36